sensor_id;sensor_type;location;lat;lon;timestamp;pressure;altitude;pressure_sealevel;temperature;humidity
80927;BME280;70385;44.538;18.532;2023-10-19T00:01:00;98957.97;;;8.68;100.00
80927;BME280;70385;44.538;18.532;2023-10-19T00:03:29;98965.78;;;8.68;100.00
80927;BME280;70385;44.538;18.532;2023-10-19T00:05:56;98951.03;;;8.67;100.00
80927;BME280;70385;44.538;18.532;2023-10-19T00:08:22;98950.25;;;8.65;100.00
80927;BME280;70385;44.538;18.532;2023-10-19T00:10:53;98952.84;;;8.65;100.00
80927;BME280;70385;44.538;18.532;2023-10-19T00:13:49;98958.81;;;8.69;100.00
80927;BME280;70385;44.538;18.532;2023-10-19T00:16:16;98968.50;;;8.65;100.00
80927;BME280;70385;44.538;18.532;2023-10-19T00:18:44;98971.00;;;8.68;100.00
80927;BME280;70385;44.538;18.532;2023-10-19T00:21:16;98975.38;;;8.68;100.00
80927;BME280;70385;44.538;18.532;2023-10-19T00:23:46;98968.50;;;8.65;100.00
80927;BME280;70385;44.538;18.532;2023-10-19T00:26:18;98975.16;;;8.72;100.00
80927;BME280;70385;44.538;18.532;2023-10-19T00:28:59;98966.88;;;8.63;100.00
80927;BME280;70385;44.538;18.532;2023-10-19T00:31:35;98958.06;;;8.65;100.00
80927;BME280;70385;44.538;18.532;2023-10-19T00:34:06;98938.91;;;8.66;100.00
80927;BME280;70385;44.538;18.532;2023-10-19T00:36:32;98924.84;;;8.70;100.00
80927;BME280;70385;44.538;18.532;2023-10-19T00:39:00;98930.75;;;8.74;100.00
80927;BME280;70385;44.538;18.532;2023-10-19T00:41:32;98950.72;;;8.75;100.00
80927;BME280;70385;44.538;18.532;2023-10-19T00:44:00;98947.53;;;8.68;100.00
80927;BME280;70385;44.538;18.532;2023-10-19T00:46:38;98936.56;;;8.60;100.00
80927;BME280;70385;44.538;18.532;2023-10-19T00:49:06;98942.41;;;8.65;100.00
80927;BME280;70385;44.538;18.532;2023-10-19T00:51:45;98941.50;;;8.66;100.00
80927;BME280;70385;44.538;18.532;2023-10-19T00:54:21;98936.50;;;8.62;100.00
80927;BME280;70385;44.538;18.532;2023-10-19T00:57:11;98941.66;;;8.63;100.00
80927;BME280;70385;44.538;18.532;2023-10-19T00:59:41;98934.09;;;8.57;100.00
80927;BME280;70385;44.538;18.532;2023-10-19T01:02:40;98936.63;;;8.59;100.00
80927;BME280;70385;44.538;18.532;2023-10-19T01:05:16;98936.56;;;8.60;100.00
80927;BME280;70385;44.538;18.532;2023-10-19T01:07:48;98928.53;;;8.65;100.00
80927;BME280;70385;44.538;18.532;2023-10-19T01:10:24;98907.66;;;8.65;100.00
80927;BME280;70385;44.538;18.532;2023-10-19T01:12:56;98912.63;;;8.71;100.00
80927;BME280;70385;44.538;18.532;2023-10-19T01:15:25;98905.50;;;8.74;100.00
80927;BME280;70385;44.538;18.532;2023-10-19T01:18:03;98909.69;;;8.78;100.00
80927;BME280;70385;44.538;18.532;2023-10-19T01:20:34;98907.78;;;8.82;100.00
80927;BME280;70385;44.538;18.532;2023-10-19T01:23:25;98893.19;;;8.78;100.00
80927;BME280;70385;44.538;18.532;2023-10-19T01:26:08;98892.81;;;8.86;100.00
80927;BME280;70385;44.538;18.532;2023-10-19T01:29:01;98889.19;;;8.90;100.00
80927;BME280;70385;44.538;18.532;2023-10-19T01:31:36;98892.72;;;8.89;100.00
80927;BME280;70385;44.538;18.532;2023-10-19T01:34:23;98894.72;;;8.82;100.00
80927;BME280;70385;44.538;18.532;2023-10-19T01:36:54;98886.97;;;8.80;100.00
80927;BME280;70385;44.538;18.532;2023-10-19T01:39:27;98883.59;;;8.78;100.00
80927;BME280;70385;44.538;18.532;2023-10-19T01:42:05;98880.22;;;8.76;100.00
80927;BME280;70385;44.538;18.532;2023-10-19T01:44:36;98875.97;;;8.74;100.00
80927;BME280;70385;44.538;18.532;2023-10-19T01:47:07;98856.25;;;8.68;100.00
80927;BME280;70385;44.538;18.532;2023-10-19T01:49:38;98856.50;;;8.62;100.00
80927;BME280;70385;44.538;18.532;2023-10-19T01:52:10;98847.97;;;8.59;100.00
80927;BME280;70385;44.538;18.532;2023-10-19T01:54:42;98837.91;;;8.51;100.00
80927;BME280;70385;44.538;18.532;2023-10-19T01:57:11;98832.94;;;8.45;100.00
80927;BME280;70385;44.538;18.532;2023-10-19T01:59:41;98836.66;;;8.39;100.00
80927;BME280;70385;44.538;18.532;2023-10-19T02:02:10;98844.28;;;8.44;100.00
80927;BME280;70385;44.538;18.532;2023-10-19T02:04:39;98842.72;;;8.40;100.00
80927;BME280;70385;44.538;18.532;2023-10-19T02:07:09;98843.97;;;8.31;100.00
80927;BME280;70385;44.538;18.532;2023-10-19T02:09:46;98837.16;;;8.27;100.00
80927;BME280;70385;44.538;18.532;2023-10-19T02:12:15;98840.19;;;8.18;100.00
80927;BME280;70385;44.538;18.532;2023-10-19T02:14:45;98849.75;;;8.17;100.00
80927;BME280;70385;44.538;18.532;2023-10-19T02:17:18;98842.31;;;8.08;100.00
80927;BME280;70385;44.538;18.532;2023-10-19T02:19:45;98819.91;;;8.04;100.00
80927;BME280;70385;44.538;18.532;2023-10-19T02:22:12;98833.72;;;8.06;100.00
80927;BME280;70385;44.538;18.532;2023-10-19T02:24:38;98830.97;;;8.09;100.00
80927;BME280;70385;44.538;18.532;2023-10-19T02:27:05;98839.72;;;8.08;100.00
80927;BME280;70385;44.538;18.532;2023-10-19T02:29:43;98819.59;;;8.12;100.00
80927;BME280;70385;44.538;18.532;2023-10-19T02:32:18;98829.81;;;8.16;100.00
80927;BME280;70385;44.538;18.532;2023-10-19T02:34:52;98819.06;;;8.24;100.00
80927;BME280;70385;44.538;18.532;2023-10-19T02:37:26;98822.19;;;8.32;100.00
80927;BME280;70385;44.538;18.532;2023-10-19T02:39:52;98810.06;;;8.31;100.00
80927;BME280;70385;44.538;18.532;2023-10-19T02:42:27;98814.50;;;8.29;100.00
80927;BME280;70385;44.538;18.532;2023-10-19T02:44:53;98826.56;;;8.32;100.00
80927;BME280;70385;44.538;18.532;2023-10-19T02:47:19;98832.56;;;8.34;100.00
80927;BME280;70385;44.538;18.532;2023-10-19T02:49:48;98815.22;;;8.33;100.00
80927;BME280;70385;44.538;18.532;2023-10-19T02:52:21;98816.72;;;8.38;100.00
80927;BME280;70385;44.538;18.532;2023-10-19T02:54:48;98807.06;;;8.40;100.00
80927;BME280;70385;44.538;18.532;2023-10-19T02:57:17;98802.91;;;8.36;100.00
80927;BME280;70385;44.538;18.532;2023-10-19T02:59:54;98815.03;;;8.37;100.00
80927;BME280;70385;44.538;18.532;2023-10-19T03:02:25;98805.44;;;8.38;100.00
80927;BME280;70385;44.538;18.532;2023-10-19T03:05:05;98807.72;;;8.45;100.00
80927;BME280;70385;44.538;18.532;2023-10-19T03:07:44;98800.53;;;8.50;100.00
80927;BME280;70385;44.538;18.532;2023-10-19T03:10:21;98789.19;;;8.51;100.00
80927;BME280;70385;44.538;18.532;2023-10-19T03:12:52;98799.56;;;8.53;100.00
80927;BME280;70385;44.538;18.532;2023-10-19T03:15:23;98795.34;;;8.50;100.00
80927;BME280;70385;44.538;18.532;2023-10-19T03:17:50;98799.56;;;8.53;100.00
80927;BME280;70385;44.538;18.532;2023-10-19T03:20:17;98794.13;;;8.58;100.00
80927;BME280;70385;44.538;18.532;2023-10-19T03:22:51;98792.28;;;8.60;100.00
80927;BME280;70385;44.538;18.532;2023-10-19T03:25:17;98806.72;;;8.67;100.00
80927;BME280;70385;44.538;18.532;2023-10-19T03:28:04;98797.28;;;8.64;100.00
80927;BME280;70385;44.538;18.532;2023-10-19T03:30:42;98789.31;;;8.67;100.00
80927;BME280;70385;44.538;18.532;2023-10-19T03:33:10;98778.97;;;8.66;100.00
80927;BME280;70385;44.538;18.532;2023-10-19T03:35:38;98783.34;;;8.65;100.00
80927;BME280;70385;44.538;18.532;2023-10-19T03:38:08;98782.47;;;8.65;100.00
80927;BME280;70385;44.538;18.532;2023-10-19T03:40:42;98781.63;;;8.64;100.00
80927;BME280;70385;44.538;18.532;2023-10-19T03:43:18;98781.09;;;8.58;100.00
80927;BME280;70385;44.538;18.532;2023-10-19T03:45:47;98781.31;;;8.53;100.00
80927;BME280;70385;44.538;18.532;2023-10-19T03:48:20;98784.31;;;8.44;100.00
80927;BME280;70385;44.538;18.532;2023-10-19T03:51:10;98788.81;;;8.40;100.00
80927;BME280;70385;44.538;18.532;2023-10-19T03:53:42;98787.22;;;8.38;100.00
80927;BME280;70385;44.538;18.532;2023-10-19T03:56:22;98784.31;;;8.44;100.00
80927;BME280;70385;44.538;18.532;2023-10-19T03:58:49;98786.53;;;8.33;100.00
80927;BME280;70385;44.538;18.532;2023-10-19T04:01:19;98778.19;;;8.25;100.00
80927;BME280;70385;44.538;18.532;2023-10-19T04:03:46;98781.00;;;8.20;100.00
80927;BME280;70385;44.538;18.532;2023-10-19T04:06:13;98783.00;;;8.15;100.00
80927;BME280;70385;44.538;18.532;2023-10-19T04:08:42;98784.03;;;8.11;100.00
80927;BME280;70385;44.538;18.532;2023-10-19T04:11:14;98774.72;;;8.05;100.00
80927;BME280;70385;44.538;18.532;2023-10-19T04:13:57;98772.03;;;8.07;100.00
80927;BME280;70385;44.538;18.532;2023-10-19T04:16:29;98764.97;;;8.10;100.00
80927;BME280;70385;44.538;18.532;2023-10-19T04:23:45;98759.69;;;8.12;100.00
80927;BME280;70385;44.538;18.532;2023-10-19T04:26:38;98761.16;;;8.17;100.00
80927;BME280;70385;44.538;18.532;2023-10-19T04:29:09;98757.34;;;8.25;100.00
80927;BME280;70385;44.538;18.532;2023-10-19T04:31:43;98769.22;;;8.32;100.00
80927;BME280;70385;44.538;18.532;2023-10-19T04:34:17;98758.84;;;8.30;100.00
80927;BME280;70385;44.538;18.532;2023-10-19T04:36:51;98755.41;;;8.30;100.00
80927;BME280;70385;44.538;18.532;2023-10-19T04:39:24;98758.25;;;8.23;100.00
80927;BME280;70385;44.538;18.532;2023-10-19T04:41:54;98769.47;;;8.26;100.00
80927;BME280;70385;44.538;18.532;2023-10-19T04:44:22;98761.00;;;8.20;100.00
80927;BME280;70385;44.538;18.532;2023-10-19T04:46:52;98749.03;;;8.16;100.00
80927;BME280;70385;44.538;18.532;2023-10-19T04:56:40;98749.44;;;8.07;100.00
80927;BME280;70385;44.538;18.532;2023-10-19T04:59:06;98740.69;;;8.08;100.00
80927;BME280;70385;44.538;18.532;2023-10-19T05:01:41;98733.72;;;8.09;100.00
80927;BME280;70385;44.538;18.532;2023-10-19T05:04:08;98744.13;;;8.10;100.00
80927;BME280;70385;44.538;18.532;2023-10-19T05:06:42;98744.38;;;8.04;100.00
80927;BME280;70385;44.538;18.532;2023-10-19T05:09:10;98725.50;;;7.99;100.00
80927;BME280;70385;44.538;18.532;2023-10-19T05:16:33;98748.97;;;7.79;100.00
80927;BME280;70385;44.538;18.532;2023-10-19T05:26:44;98740.81;;;7.86;100.00
80927;BME280;70385;44.538;18.532;2023-10-19T05:29:43;98733.84;;;7.87;100.00
80927;BME280;70385;44.538;18.532;2023-10-19T05:32:20;98729.28;;;7.92;100.00
80927;BME280;70385;44.538;18.532;2023-10-19T05:34:46;98729.00;;;7.98;100.00
80927;BME280;70385;44.538;18.532;2023-10-19T05:37:12;98732.88;;;8.08;100.00
80927;BME280;70385;44.538;18.532;2023-10-19T05:39:42;98733.69;;;8.10;100.00
80927;BME280;70385;44.538;18.532;2023-10-19T05:42:08;98743.69;;;8.19;100.00
80927;BME280;70385;44.538;18.532;2023-10-19T05:44:35;98731.28;;;8.25;100.00
80927;BME280;70385;44.538;18.532;2023-10-19T05:47:02;98727.50;;;8.32;100.00
80927;BME280;70385;44.538;18.532;2023-10-19T05:49:33;98713.28;;;8.39;100.00
80927;BME280;70385;44.538;18.532;2023-10-19T05:52:03;98711.38;;;8.42;100.00
80927;BME280;70385;44.538;18.532;2023-10-19T05:54:32;98709.28;;;8.50;100.00
80927;BME280;70385;44.538;18.532;2023-10-19T05:56:59;98705.69;;;8.53;100.00
80927;BME280;70385;44.538;18.532;2023-10-19T05:59:29;98712.53;;;8.56;100.00
80927;BME280;70385;44.538;18.532;2023-10-19T06:02:22;98717.28;;;8.65;100.00
80927;BME280;70385;44.538;18.532;2023-10-19T06:05:05;98714.66;;;8.83;100.00
80927;BME280;70385;44.538;18.532;2023-10-19T06:10:57;98704.47;;;8.96;100.00
80927;BME280;70385;44.538;18.532;2023-10-19T06:14:07;98703.19;;;9.05;100.00
80927;BME280;70385;44.538;18.532;2023-10-19T06:17:03;98685.31;;;9.32;100.00
80927;BME280;70385;44.538;18.532;2023-10-19T06:19:36;98702.13;;;9.43;100.00
80927;BME280;70385;44.538;18.532;2023-10-19T06:24:57;98690.53;;;9.82;100.00
80927;BME280;70385;44.538;18.532;2023-10-19T06:27:48;98676.34;;;9.88;100.00
80927;BME280;70385;44.538;18.532;2023-10-19T06:30:28;98682.66;;;9.99;100.00
80927;BME280;70385;44.538;18.532;2023-10-19T06:33:10;98674.59;;;10.20;100.00
80927;BME280;70385;44.538;18.532;2023-10-19T06:35:40;98680.06;;;10.48;100.00
80927;BME280;70385;44.538;18.532;2023-10-19T07:26:49;98631.53;;;12.46;100.00
80927;BME280;70385;44.538;18.532;2023-10-19T07:29:47;98624.97;;;12.81;100.00
80927;BME280;70385;44.538;18.532;2023-10-19T07:32:26;98610.94;;;13.07;100.00
80927;BME280;70385;44.538;18.532;2023-10-19T07:34:57;98596.28;;;13.30;100.00
80927;BME280;70385;44.538;18.532;2023-10-19T07:37:25;98607.44;;;13.59;100.00
80927;BME280;70385;44.538;18.532;2023-10-19T07:39:54;98598.59;;;13.47;100.00
80927;BME280;70385;44.538;18.532;2023-10-19T07:42:24;98602.19;;;13.72;100.00
80927;BME280;70385;44.538;18.532;2023-10-19T07:44:51;98608.38;;;13.83;100.00
80927;BME280;70385;44.538;18.532;2023-10-19T07:47:17;98617.31;;;13.81;100.00
80927;BME280;70385;44.538;18.532;2023-10-19T07:49:50;98602.38;;;13.94;100.00
80927;BME280;70385;44.538;18.532;2023-10-19T07:52:21;98579.34;;;13.85;100.00
80927;BME280;70385;44.538;18.532;2023-10-19T07:54:50;98592.09;;;13.78;100.00
80927;BME280;70385;44.538;18.532;2023-10-19T07:57:20;98578.00;;;13.66;100.00
80927;BME280;70385;44.538;18.532;2023-10-19T07:59:46;98591.34;;;13.63;100.00
80927;BME280;70385;44.538;18.532;2023-10-19T08:02:13;98577.44;;;13.87;100.00
80927;BME280;70385;44.538;18.532;2023-10-19T08:04:39;98549.41;;;14.35;100.00
80927;BME280;70385;44.538;18.532;2023-10-19T08:07:09;98527.28;;;14.14;100.00
80927;BME280;70385;44.538;18.532;2023-10-19T08:09:37;98536.28;;;13.98;100.00
80927;BME280;70385;44.538;18.532;2023-10-19T08:12:04;98554.59;;;13.87;100.00
80927;BME280;70385;44.538;18.532;2023-10-19T08:14:34;98559.69;;;13.90;100.00
80927;BME280;70385;44.538;18.532;2023-10-19T08:17:00;98565.34;;;13.84;100.00
80927;BME280;70385;44.538;18.532;2023-10-19T08:19:30;98561.41;;;14.03;100.00
80927;BME280;70385;44.538;18.532;2023-10-19T08:21:57;98574.22;;;14.07;100.00
80927;BME280;70385;44.538;18.532;2023-10-19T08:24:23;98601.72;;;14.03;100.00
80927;BME280;70385;44.538;18.532;2023-10-19T08:27:05;98584.25;;;14.02;100.00
80927;BME280;70385;44.538;18.532;2023-10-19T08:29:35;98576.56;;;13.99;100.00
80927;BME280;70385;44.538;18.532;2023-10-19T08:32:01;98573.13;;;14.22;100.00
80927;BME280;70385;44.538;18.532;2023-10-19T08:34:30;98589.00;;;14.46;100.00
80927;BME280;70385;44.538;18.532;2023-10-19T08:37:11;98603.28;;;14.42;100.00
80927;BME280;70385;44.538;18.532;2023-10-19T08:39:37;98603.72;;;14.49;100.00
80927;BME280;70385;44.538;18.532;2023-10-19T08:42:06;98610.44;;;14.53;100.00
80927;BME280;70385;44.538;18.532;2023-10-19T09:00:15;98542.81;;;15.57;98.12
80927;BME280;70385;44.538;18.532;2023-10-19T09:02:56;98528.78;;;15.34;98.99
80927;BME280;70385;44.538;18.532;2023-10-19T09:05:22;98529.75;;;15.89;96.47
80927;BME280;70385;44.538;18.532;2023-10-19T09:08:13;98522.88;;;16.20;96.16
80927;BME280;70385;44.538;18.532;2023-10-19T09:11:23;98535.75;;;16.46;95.40
80927;BME280;70385;44.538;18.532;2023-10-19T09:13:51;98537.75;;;16.53;92.63
80927;BME280;70385;44.538;18.532;2023-10-19T09:16:22;98548.00;;;16.35;93.46
80927;BME280;70385;44.538;18.532;2023-10-19T09:22:03;98549.31;;;16.41;97.56
80927;BME280;70385;44.538;18.532;2023-10-19T09:24:54;98527.75;;;16.68;98.85
80927;BME280;70385;44.538;18.532;2023-10-19T09:34:40;98523.97;;;18.54;89.28
80927;BME280;70385;44.538;18.532;2023-10-19T09:37:34;98522.72;;;18.77;89.75
80927;BME280;70385;44.538;18.532;2023-10-19T09:40:51;98496.50;;;18.93;85.64
80927;BME280;70385;44.538;18.532;2023-10-19T09:43:41;98494.53;;;18.95;86.34
80927;BME280;70385;44.538;18.532;2023-10-19T09:46:09;98499.84;;;19.42;83.72
80927;BME280;70385;44.538;18.532;2023-10-19T09:48:47;98500.34;;;19.08;84.50
80927;BME280;70385;44.538;18.532;2023-10-19T09:51:31;98492.16;;;19.39;84.10
80927;BME280;70385;44.538;18.532;2023-10-19T09:58:59;98482.63;;;20.11;82.87
80927;BME280;70385;44.538;18.532;2023-10-19T10:02:08;98479.59;;;20.59;80.95
80927;BME280;70385;44.538;18.532;2023-10-19T10:04:45;98480.53;;;20.68;78.59
80927;BME280;70385;44.538;18.532;2023-10-19T10:07:30;98476.59;;;20.98;79.16
80927;BME280;70385;44.538;18.532;2023-10-19T10:10:16;98474.25;;;20.95;76.31
80927;BME280;70385;44.538;18.532;2023-10-19T10:12:43;98469.06;;;21.19;76.10
80927;BME280;70385;44.538;18.532;2023-10-19T10:18:41;98473.97;;;21.58;76.49
80927;BME280;70385;44.538;18.532;2023-10-19T10:21:11;98448.75;;;21.78;76.26
80927;BME280;70385;44.538;18.532;2023-10-19T10:23:47;98449.66;;;22.03;73.23
80927;BME280;70385;44.538;18.532;2023-10-19T10:26:17;98424.06;;;22.34;67.70
80927;BME280;70385;44.538;18.532;2023-10-19T10:29:13;98425.88;;;22.75;65.01
80927;BME280;70385;44.538;18.532;2023-10-19T10:32:25;98426.25;;;22.96;63.21
80927;BME280;70385;44.538;18.532;2023-10-19T10:45:08;98419.03;;;23.52;57.92
80927;BME280;70385;44.538;18.532;2023-10-19T10:48:16;98419.50;;;23.24;58.00
80927;BME280;70385;44.538;18.532;2023-10-19T10:50:47;98413.38;;;23.16;58.32
80927;BME280;70385;44.538;18.532;2023-10-19T10:53:14;98411.22;;;22.70;60.59
80927;BME280;70385;44.538;18.532;2023-10-19T11:03:18;98394.66;;;23.63;56.06
80927;BME280;70385;44.538;18.532;2023-10-19T11:16:24;98369.91;;;23.38;56.32
80927;BME280;70385;44.538;18.532;2023-10-19T11:19:20;98388.63;;;23.69;54.77
80927;BME280;70385;44.538;18.532;2023-10-19T11:23:01;98372.75;;;23.76;54.89
80927;BME280;70385;44.538;18.532;2023-10-19T11:26:23;98363.91;;;24.21;54.15
80927;BME280;70385;44.538;18.532;2023-10-19T11:29:07;98370.88;;;24.30;53.30
80927;BME280;70385;44.538;18.532;2023-10-19T11:35:19;98358.91;;;24.18;52.21
80927;BME280;70385;44.538;18.532;2023-10-19T11:38:01;98363.72;;;24.45;52.09
80927;BME280;70385;44.538;18.532;2023-10-19T11:40:30;98362.03;;;24.30;52.00
80927;BME280;70385;44.538;18.532;2023-10-19T11:42:57;98352.66;;;24.48;51.71
80927;BME280;70385;44.538;18.532;2023-10-19T11:45:24;98359.22;;;24.61;51.26
80927;BME280;70385;44.538;18.532;2023-10-19T11:47:50;98355.41;;;24.40;52.90
80927;BME280;70385;44.538;18.532;2023-10-19T11:50:22;98356.28;;;24.56;51.72
80927;BME280;70385;44.538;18.532;2023-10-19T11:52:57;98347.78;;;24.67;51.33
80927;BME280;70385;44.538;18.532;2023-10-19T11:55:25;98346.78;;;24.82;51.09
80927;BME280;70385;44.538;18.532;2023-10-19T12:00:56;98340.78;;;25.39;50.17
80927;BME280;70385;44.538;18.532;2023-10-19T12:03:55;98337.75;;;24.98;48.78
80927;BME280;70385;44.538;18.532;2023-10-19T12:06:41;98327.34;;;25.18;49.19
80927;BME280;70385;44.538;18.532;2023-10-19T12:12:59;98323.41;;;24.99;50.56
80927;BME280;70385;44.538;18.532;2023-10-19T12:15:47;98327.34;;;25.18;49.74
80927;BME280;70385;44.538;18.532;2023-10-19T12:18:21;98309.88;;;25.37;48.82
80927;BME280;70385;44.538;18.532;2023-10-19T12:20:48;98315.66;;;25.40;48.60
80927;BME280;70385;44.538;18.532;2023-10-19T12:23:18;98314.13;;;25.31;49.62
80927;BME280;70385;44.538;18.532;2023-10-19T12:25:44;98328.13;;;25.48;48.51
80927;BME280;70385;44.538;18.532;2023-10-19T12:32:48;98326.16;;;26.14;48.87
80927;BME280;70385;44.538;18.532;2023-10-19T12:35:47;98333.31;;;25.35;49.44
80927;BME280;70385;44.538;18.532;2023-10-19T12:38:38;98333.16;;;24.92;50.09
80927;BME280;70385;44.538;18.532;2023-10-19T12:41:07;98334.47;;;24.44;51.38
80927;BME280;70385;44.538;18.532;2023-10-19T12:43:45;98339.84;;;24.21;51.36
80927;BME280;70385;44.538;18.532;2023-10-19T12:46:42;98341.09;;;23.87;52.32
80927;BME280;70385;44.538;18.532;2023-10-19T12:49:07;98355.91;;;23.67;53.02
80927;BME280;70385;44.538;18.532;2023-10-19T12:51:34;98344.28;;;23.52;53.48
80927;BME280;70385;44.538;18.532;2023-10-19T12:54:04;98342.03;;;23.32;53.59
80927;BME280;70385;44.538;18.532;2023-10-19T12:56:30;98345.91;;;23.30;54.42
80927;BME280;70385;44.538;18.532;2023-10-19T12:58:59;98346.94;;;23.21;54.25
80927;BME280;70385;44.538;18.532;2023-10-19T13:01:25;98348.75;;;23.28;53.90
80927;BME280;70385;44.538;18.532;2023-10-19T13:04:01;98368.06;;;23.39;53.75
80927;BME280;70385;44.538;18.532;2023-10-19T13:06:47;98360.31;;;23.52;53.37
80927;BME280;70385;44.538;18.532;2023-10-19T13:09:14;98347.22;;;23.73;52.92
80927;BME280;70385;44.538;18.532;2023-10-19T13:11:51;98323.94;;;24.05;53.04
80927;BME280;70385;44.538;18.532;2023-10-19T13:14:18;98323.97;;;24.19;51.52
80927;BME280;70385;44.538;18.532;2023-10-19T13:16:44;98325.91;;;24.48;51.60
80927;BME280;70385;44.538;18.532;2023-10-19T13:19:11;98322.53;;;24.55;51.40
80927;BME280;70385;44.538;18.532;2023-10-19T13:21:48;98312.38;;;24.27;52.48
80927;BME280;70385;44.538;18.532;2023-10-19T13:24:15;98321.44;;;24.03;52.80
80927;BME280;70385;44.538;18.532;2023-10-19T13:26:43;98301.50;;;24.14;53.34
80927;BME280;70385;44.538;18.532;2023-10-19T13:29:14;98302.19;;;24.08;53.10
80927;BME280;70385;44.538;18.532;2023-10-19T13:31:43;98317.16;;;24.17;53.76
80927;BME280;70385;44.538;18.532;2023-10-19T13:34:17;98306.19;;;24.49;52.61
80927;BME280;70385;44.538;18.532;2023-10-19T13:36:53;98297.09;;;24.73;52.23
80927;BME280;70385;44.538;18.532;2023-10-19T13:39:32;98296.41;;;24.57;52.81
80927;BME280;70385;44.538;18.532;2023-10-19T13:41:59;98293.47;;;24.81;52.14
80927;BME280;70385;44.538;18.532;2023-10-19T13:44:27;98294.56;;;24.87;52.65
80927;BME280;70385;44.538;18.532;2023-10-19T13:46:56;98279.56;;;25.00;51.53
80927;BME280;70385;44.538;18.532;2023-10-19T13:49:23;98285.84;;;25.07;52.00
80927;BME280;70385;44.538;18.532;2023-10-19T13:51:59;98283.84;;;25.31;51.65
80927;BME280;70385;44.538;18.532;2023-10-19T13:54:31;98283.25;;;25.50;50.20
80927;BME280;70385;44.538;18.532;2023-10-19T13:56:57;98281.50;;;25.42;50.07
80927;BME280;70385;44.538;18.532;2023-10-19T13:59:23;98281.94;;;24.95;50.99
80927;BME280;70385;44.538;18.532;2023-10-19T14:01:50;98287.31;;;24.51;52.20
80927;BME280;70385;44.538;18.532;2023-10-19T14:04:19;98295.53;;;24.04;53.13
80927;BME280;70385;44.538;18.532;2023-10-19T14:06:50;98288.78;;;23.70;54.71
80927;BME280;70385;44.538;18.532;2023-10-19T14:09:18;98281.97;;;23.37;56.45
80927;BME280;70385;44.538;18.532;2023-10-19T14:11:44;98284.63;;;23.06;56.57
80927;BME280;70385;44.538;18.532;2023-10-19T14:14:14;98285.88;;;22.95;56.87
80927;BME280;70385;44.538;18.532;2023-10-19T14:16:41;98276.63;;;22.58;58.82
80927;BME280;70385;44.538;18.532;2023-10-19T14:19:08;98269.75;;;22.64;59.10
80927;BME280;70385;44.538;18.532;2023-10-19T14:21:34;98272.13;;;22.59;59.19
80927;BME280;70385;44.538;18.532;2023-10-19T14:24:03;98281.31;;;22.48;58.98
80927;BME280;70385;44.538;18.532;2023-10-19T14:26:33;98279.97;;;22.44;59.05
80927;BME280;70385;44.538;18.532;2023-10-19T14:28:59;98276.00;;;22.32;60.78
80927;BME280;70385;44.538;18.532;2023-10-19T14:31:28;98267.97;;;22.48;59.75
80927;BME280;70385;44.538;18.532;2023-10-19T14:33:55;98285.81;;;22.48;60.24
80927;BME280;70385;44.538;18.532;2023-10-19T14:36:25;98278.16;;;22.45;59.40
80927;BME280;70385;44.538;18.532;2023-10-19T14:38:51;98275.00;;;22.41;60.46
80927;BME280;70385;44.538;18.532;2023-10-19T14:41:17;98285.47;;;22.51;59.93
80927;BME280;70385;44.538;18.532;2023-10-19T14:43:44;98269.81;;;22.48;59.66
80927;BME280;70385;44.538;18.532;2023-10-19T14:46:12;98269.47;;;22.59;59.60
80927;BME280;70385;44.538;18.532;2023-10-19T14:48:52;98269.75;;;22.64;59.82
80927;BME280;70385;44.538;18.532;2023-10-19T14:51:50;98268.94;;;22.55;60.26
80927;BME280;70385;44.538;18.532;2023-10-19T14:54:22;98265.00;;;22.35;60.94
80927;BME280;70385;44.538;18.532;2023-10-19T14:57:01;98274.00;;;22.42;60.40
80927;BME280;70385;44.538;18.532;2023-10-19T14:59:27;98268.72;;;22.18;61.00
80927;BME280;70385;44.538;18.532;2023-10-19T15:02:05;98270.38;;;22.10;62.91
80927;BME280;70385;44.538;18.532;2023-10-19T15:04:42;98268.84;;;21.92;64.89
80927;BME280;70385;44.538;18.532;2023-10-19T15:07:12;98262.22;;;21.79;64.17
80927;BME280;70385;44.538;18.532;2023-10-19T15:09:39;98261.69;;;21.92;62.48
80927;BME280;70385;44.538;18.532;2023-10-19T15:12:29;98272.16;;;21.94;62.60
80927;BME280;70385;44.538;18.532;2023-10-19T15:15:03;98269.69;;;21.92;63.55
80927;BME280;70385;44.538;18.532;2023-10-19T15:17:33;98275.50;;;21.63;65.46
80927;BME280;70385;44.538;18.532;2023-10-19T15:20:00;98280.72;;;21.23;69.22
80927;BME280;70385;44.538;18.532;2023-10-19T15:22:38;98271.47;;;21.01;70.85
80927;BME280;70385;44.538;18.532;2023-10-19T15:25:08;98267.31;;;20.90;72.20
80927;BME280;70385;44.538;18.532;2023-10-19T15:27:42;98261.03;;;20.39;75.36
80927;BME280;70385;44.538;18.532;2023-10-19T15:30:10;98276.19;;;20.21;76.42
80927;BME280;70385;44.538;18.532;2023-10-19T15:32:45;98270.00;;;20.12;75.15
80927;BME280;70385;44.538;18.532;2023-10-19T15:35:15;98274.50;;;19.94;77.93
80927;BME280;70385;44.538;18.532;2023-10-19T15:37:51;98265.88;;;19.92;77.40
80927;BME280;70385;44.538;18.532;2023-10-19T15:40:28;98256.25;;;19.73;78.43
80927;BME280;70385;44.538;18.532;2023-10-19T15:43:01;98252.09;;;19.70;79.21
80927;BME280;70385;44.538;18.532;2023-10-19T15:45:29;98254.28;;;19.57;79.44
80927;BME280;70385;44.538;18.532;2023-10-19T15:48:05;98247.50;;;19.45;80.48
80927;BME280;70385;44.538;18.532;2023-10-19T15:50:35;98249.88;;;19.48;80.02
80927;BME280;70385;44.538;18.532;2023-10-19T15:53:07;98247.09;;;19.67;75.93
80927;BME280;70385;44.538;18.532;2023-10-19T15:55:33;98259.28;;;19.78;75.00
80927;BME280;70385;44.538;18.532;2023-10-19T15:58:03;98247.03;;;19.85;73.67
80927;BME280;70385;44.538;18.532;2023-10-19T16:00:31;98249.19;;;19.82;73.79